If you wish to contribute or participate in the discussions about articles you are invited to join SKYbrary as a registered user

 Actions

Haines Airport

From SKYbrary Wiki

PAHN
Airport
ICAO: PAHN – IATA: HNS
Summary
Name Haines Airport
Region North America
Territory Alaska US.gif
Location , Alaska
Serving Haines
Elevation 4.572 m
15 ft
15 ft4.572 m
Type medium airport
Coordinates 59° 14' 37.68" N, 135° 31' 26.40" W
Runways
Designator Length Width Surface ROPS
8/26 1219 m3,999.344 ft
30 m98.425 ft
ASP /


METAR
Observation PAHN 160754Z AUTO 30015G21KT 10SM OVC055 02/01 A2934 RMK AO2 SLP937 T00220006 TSNO
Station Haines, Haines Airport
Date/Time 16 October 2019 07:54:00
Wind direction 300°
Wind speed 15 kts
Lowest cloud amount overcast
Temperature 2.2°C
Dew point 0.6°C
Humidity 89%
QNH hPa
Weather condition n/a